Time;durP1;ratioP1;P1;durP2;ratioP2;P2;SDS_P1;SDS_P2;PMS_P1;PMS_P2;Temp;Humidity;BMP_temperature;BMP_pressure;BME280_temperature;BME280_humidity;BME280_pressure;Samples;Min_cycle;Max_cycle;Signal;HPM_P1;HPM_P2
2021/08/17 00:01:21;;;;;;;61.45;26.52;;;15.60;99.90;;;;;;5061762;28;20032;-74
2021/08/17 00:03:47;;;;;;;67.18;26.63;;;15.60;99.90;;;;;;5060406;28;20043;-74
2021/08/17 00:06:13;;;;;;;64.03;27.20;;;15.70;99.90;;;;;;5064434;28;20028;-74
2021/08/17 00:08:38;;;;;;;62.60;28.17;;;15.70;99.90;;;;;;5065061;28;20025;-74
2021/08/17 00:11:04;;;;;;;67.68;29.90;;;15.60;99.90;;;;;;5049138;28;20029;-74
2021/08/17 00:13:30;;;;;;;60.70;28.15;;;15.60;99.90;;;;;;5071873;28;20029;-74
2021/08/17 00:15:55;;;;;;;68.78;30.08;;;15.70;99.90;;;;;;5066696;28;20025;-73
2021/08/17 00:18:21;;;;;;;74.07;30.40;;;15.70;99.90;;;;;;5060147;28;20032;-74
2021/08/17 00:20:47;;;;;;;74.85;31.05;;;15.70;99.90;;;;;;5068105;28;20370;-75
2021/08/17 00:23:12;;;;;;;72.20;29.98;;;15.60;99.90;;;;;;5061283;28;20013;-74
2021/08/17 00:25:42;;;;;;;75.85;30.92;;;15.60;99.90;;;;;;5061038;28;20040;-74
2021/08/17 00:28:09;;;;;;;73.88;32.13;;;15.60;99.90;;;;;;5069221;28;20028;-74
2021/08/17 00:30:34;;;;;;;77.75;31.85;;;15.70;99.90;;;;;;5067687;28;20112;-74
2021/08/17 00:33:00;;;;;;;69.13;30.25;;;15.70;99.90;;;;;;5067220;28;20104;-74
2021/08/17 00:35:26;;;;;;;77.95;30.95;;;15.70;99.90;;;;;;5066219;28;20155;-75
2021/08/17 00:37:52;;;;;;;73.63;31.38;;;15.70;99.90;;;;;;5063761;28;20126;-74
2021/08/17 00:40:18;;;;;;;70.18;29.75;;;15.70;99.90;;;;;;5062720;28;20025;-74
2021/08/17 00:42:46;;;;;;;70.93;31.35;;;15.70;99.90;;;;;;5067786;28;20025;-74
2021/08/17 00:45:23;;;;;;;69.93;29.95;;;15.70;99.90;;;;;;5065642;28;20028;-74
2021/08/17 00:47:56;;;;;;;73.40;31.48;;;15.70;99.90;;;;;;5044737;28;20036;-74
2021/08/17 00:50:27;;;;;;;72.55;31.67;;;15.70;99.90;;;;;;5069106;28;20035;-74
2021/08/17 00:52:54;;;;;;;75.30;30.63;;;15.60;99.90;;;;;;5062087;28;20036;-74
2021/08/17 00:55:21;;;;;;;66.50;27.88;;;15.60;99.90;;;;;;5064568;28;20385;-74
2021/08/17 00:57:47;;;;;;;69.63;28.98;;;15.60;99.90;;;;;;5063150;28;20039;-75
2021/08/17 01:00:13;;;;;;;76.50;33.20;;;15.50;99.90;;;;;;5064160;28;20028;-75
2021/08/17 01:02:41;;;;;;;75.93;32.03;;;15.60;99.90;;;;;;5068925;28;20086;-74
2021/08/17 01:05:07;;;;;;;85.75;33.58;;;15.70;99.90;;;;;;5069271;28;20039;-74
2021/08/17 01:07:34;;;;;;;73.85;30.92;;;15.60;99.90;;;;;;5071031;28;20043;-73
2021/08/17 01:09:59;;;;;;;71.57;30.63;;;15.60;99.90;;;;;;5049343;28;20380;-75
2021/08/17 01:12:25;;;;;;;70.20;30.17;;;15.60;99.90;;;;;;5065949;28;20107;-75
2021/08/17 01:14:51;;;;;;;67.97;29.95;;;15.60;99.90;;;;;;5063260;28;20052;-75
2021/08/17 01:17:18;;;;;;;76.60;30.23;;;15.50;99.90;;;;;;5062610;28;20067;-75
2021/08/17 01:19:45;;;;;;;83.70;31.45;;;15.60;99.90;;;;;;5044952;28;20024;-75
2021/08/17 01:22:12;;;;;;;75.93;29.65;;;15.50;99.90;;;;;;5051333;28;20052;-74
2021/08/17 01:24:37;;;;;;;66.25;29.02;;;15.60;99.90;;;;;;5063943;28;20029;-74
2021/08/17 01:27:03;;;;;;;73.35;30.67;;;15.60;99.90;;;;;;5066585;28;20487;-74
2021/08/17 01:29:29;;;;;;;76.47;30.27;;;15.60;99.90;;;;;;5053114;28;20465;-74
2021/08/17 01:31:57;;;;;;;76.55;30.35;;;15.60;99.90;;;;;;5048830;28;20143;-74
2021/08/17 01:34:23;;;;;;;71.47;30.05;;;15.60;99.90;;;;;;5063525;28;20062;-74
2021/08/17 01:36:49;;;;;;;72.63;29.55;;;15.50;99.90;;;;;;5062170;28;20110;-74
2021/08/17 01:39:15;;;;;;;69.03;29.08;;;15.50;99.90;;;;;;5067748;28;20108;-74
2021/08/17 01:41:41;;;;;;;70.13;29.73;;;15.50;99.90;;;;;;5053627;28;20036;-76
2021/08/17 01:44:25;;;;;;;62.53;27.42;;;15.60;99.90;;;;;;5059932;28;20529;-74
2021/08/17 01:46:50;;;;;;;60.40;26.15;;;15.50;99.90;;;;;;5051148;28;20059;-73
2021/08/17 01:49:19;;;;;;;60.35;26.55;;;15.50;99.90;;;;;;5065419;28;20072;-73
2021/08/17 01:51:48;;;;;;;64.35;27.75;;;15.50;99.90;;;;;;5060541;28;20033;-74
2021/08/17 01:54:16;;;;;;;64.57;27.98;;;15.50;99.90;;;;;;5064316;28;20071;-75
2021/08/17 01:56:43;;;;;;;63.92;27.00;;;15.50;99.90;;;;;;5049858;28;20028;-73
2021/08/17 01:59:12;;;;;;;65.72;25.83;;;15.50;99.90;;;;;;5070308;28;20052;-74
2021/08/17 02:01:39;;;;;;;65.60;27.58;;;15.60;99.90;;;;;;5075065;28;20027;-74
2021/08/17 02:04:04;;;;;;;59.63;27.15;;;15.60;99.90;;;;;;5072794;28;20457;-74
2021/08/17 02:06:30;;;;;;;69.38;27.83;;;15.60;99.90;;;;;;5070231;28;20115;-74
2021/08/17 02:08:55;;;;;;;63.65;26.65;;;15.50;99.90;;;;;;5069125;28;20025;-74
2021/08/17 02:11:22;;;;;;;64.13;26.02;;;15.60;99.90;;;;;;5073937;28;20048;-74
2021/08/17 02:13:47;;;;;;;68.70;28.02;;;15.60;99.90;;;;;;5065796;28;20039;-74
2021/08/17 02:16:13;;;;;;;64.95;28.27;;;15.60;99.90;;;;;;5070196;28;20024;-74
2021/08/17 02:18:39;;;;;;;69.35;27.85;;;15.70;99.90;;;;;;5067464;28;20021;-74
2021/08/17 02:21:05;;;;;;;62.08;27.77;;;15.70;99.90;;;;;;5071989;28;20035;-74
2021/08/17 02:23:31;;;;;;;64.45;28.38;;;15.70;99.90;;;;;;5057236;28;20028;-74
2021/08/17 02:25:57;;;;;;;61.25;27.17;;;15.70;99.90;;;;;;5069242;28;20029;-74
2021/08/17 02:28:23;;;;;;;57.60;25.67;;;15.70;99.90;;;;;;5067234;28;20580;-74
2021/08/17 02:30:50;;;;;;;64.53;27.48;;;15.80;99.90;;;;;;5067435;28;20040;-74
2021/08/17 02:33:17;;;;;;;53.10;24.95;;;15.80;99.90;;;;;;5054965;28;20032;-74
2021/08/17 02:35:43;;;;;;;65.88;27.27;;;15.70;99.90;;;;;;5073119;28;20032;-74
2021/08/17 02:38:10;;;;;;;58.90;25.83;;;15.70;99.90;;;;;;5054077;28;20428;-74
2021/08/17 02:40:38;;;;;;;61.47;26.27;;;15.70;99.90;;;;;;5069117;28;20028;-73
2021/08/17 02:43:04;;;;;;;56.25;24.63;;;15.70;99.90;;;;;;5049528;28;20024;-75
2021/08/17 02:45:30;;;;;;;60.17;25.95;;;15.70;99.90;;;;;;5065829;28;20032;-74
2021/08/17 02:48:00;;;;;;;62.05;25.55;;;15.70;99.90;;;;;;5071503;28;20048;-74
2021/08/17 02:50:27;;;;;;;66.35;27.25;;;15.70;99.90;;;;;;5065143;28;20078;-75
2021/08/17 02:52:53;;;;;;;55.97;24.65;;;15.70;99.90;;;;;;5063684;28;20028;-74
2021/08/17 02:55:19;;;;;;;63.03;25.55;;;15.70;99.90;;;;;;5069295;28;20021;-74
2021/08/17 02:57:54;;;;;;;63.85;26.77;;;15.70;99.90;;;;;;5060438;28;20036;-75
2021/08/17 03:00:20;;;;;;;61.40;26.33;;;15.60;99.90;;;;;;5050610;28;20040;-74
2021/08/17 03:02:47;;;;;;;62.30;25.27;;;15.70;99.90;;;;;;5071519;28;20025;-74
2021/08/17 03:05:13;;;;;;;64.35;25.77;;;15.70;99.90;;;;;;5065658;28;20473;-75
2021/08/17 03:07:53;;;;;;;64.72;28.00;;;15.60;99.90;;;;;;5073339;28;20032;-75
2021/08/17 03:10:20;;;;;;;55.45;25.88;;;15.60;99.90;;;;;;5064611;28;20033;-74
2021/08/17 03:12:46;;;;;;;63.47;27.35;;;15.60;99.90;;;;;;5069742;28;21754;-74
2021/08/17 03:15:11;;;;;;;68.20;26.42;;;15.70;99.90;;;;;;5063133;28;20028;-74
2021/08/17 03:17:37;;;;;;;54.70;23.92;;;15.60;99.90;;;;;;5065126;28;20031;-74
2021/08/17 03:20:09;;;;;;;68.43;26.35;;;15.60;99.90;;;;;;5064892;28;20029;-74
2021/08/17 03:22:36;;;;;;;58.30;25.10;;;15.60;99.90;;;;;;5067907;28;20113;-74
2021/08/17 03:25:03;;;;;;;67.32;26.30;;;15.60;99.90;;;;;;5063757;28;20028;-74
2021/08/17 03:27:29;;;;;;;55.42;24.83;;;15.60;99.90;;;;;;5066554;28;20504;-74
2021/08/17 03:29:54;;;;;;;59.40;24.48;;;15.60;99.90;;;;;;5061818;28;20092;-75
2021/08/17 03:32:20;;;;;;;59.25;24.10;;;15.60;99.90;;;;;;5063917;28;20031;-74
2021/08/17 03:34:46;;;;;;;55.75;22.92;;;15.70;99.90;;;;;;5062132;28;20108;-73
2021/08/17 03:37:12;;;;;;;58.92;23.98;;;15.60;99.90;;;;;;5060984;28;20123;-74
2021/08/17 03:39:37;;;;;;;56.83;25.05;;;15.60;99.90;;;;;;5067535;28;20024;-74
2021/08/17 03:42:03;;;;;;;60.53;25.02;;;15.60;99.90;;;;;;5055571;28;20077;-74
2021/08/17 03:44:29;;;;;;;58.63;24.85;;;15.60;99.90;;;;;;5069622;28;20024;-74
2021/08/17 03:46:55;;;;;;;60.38;25.70;;;15.50;99.90;;;;;;5064083;28;20442;-74
2021/08/17 03:49:20;;;;;;;59.55;24.65;;;15.60;99.90;;;;;;5061145;28;20033;-74
2021/08/17 03:51:47;;;;;;;63.70;25.25;;;15.50;99.90;;;;;;5062079;28;20104;-74
2021/08/17 03:54:12;;;;;;;64.50;24.70;;;15.60;99.90;;;;;;5068800;28;20489;-74
2021/08/17 03:56:38;;;;;;;59.38;27.73;;;15.60;99.90;;;;;;5045389;28;20042;-74
2021/08/17 03:59:04;;;;;;;58.67;24.52;;;15.60;99.90;;;;;;5065363;28;20021;-73
2021/08/17 04:01:29;;;;;;;63.42;25.65;;;15.60;99.90;;;;;;5074144;28;20060;-73
2021/08/17 04:03:55;;;;;;;70.65;26.75;;;15.60;99.90;;;;;;5069996;28;20362;-73
2021/08/17 04:06:21;;;;;;;72.35;27.00;;;15.50;99.90;;;;;;5062518;28;20033;-74
2021/08/17 04:08:48;;;;;;;64.88;25.45;;;15.50;99.90;;;;;;5065765;28;20357;-76
2021/08/17 04:11:14;;;;;;;72.45;26.73;;;15.50;99.90;;;;;;5064749;28;20506;-74
2021/08/17 04:13:40;;;;;;;64.15;26.23;;;15.50;99.90;;;;;;5053491;28;20057;-74
2021/08/17 04:16:06;;;;;;;64.70;26.50;;;15.50;99.90;;;;;;5060486;28;20359;-74
2021/08/17 04:18:32;;;;;;;67.97;26.50;;;15.50;99.90;;;;;;5068647;28;20487;-74
2021/08/17 04:20:58;;;;;;;65.22;25.83;;;15.50;99.90;;;;;;5051881;28;20122;-74
2021/08/17 04:23:24;;;;;;;65.45;25.67;;;15.50;99.90;;;;;;5066491;28;20028;-74
2021/08/17 04:25:50;;;;;;;58.83;25.13;;;15.40;99.90;;;;;;5064146;28;20468;-74
2021/08/17 04:28:15;;;;;;;59.67;25.33;;;15.50;99.90;;;;;;5065515;28;20041;-74
2021/08/17 04:30:41;;;;;;;64.30;25.52;;;15.50;99.90;;;;;;5062572;28;20023;-74
2021/08/17 04:33:07;;;;;;;65.95;26.60;;;15.50;99.90;;;;;;5069633;28;20055;-75
2021/08/17 04:35:33;;;;;;;61.63;26.00;;;15.40;99.90;;;;;;5063434;28;20040;-75
2021/08/17 04:37:58;;;;;;;69.20;27.15;;;15.40;99.90;;;;;;5066029;28;20052;-74
2021/08/17 04:40:24;;;;;;;63.03;25.00;;;15.40;99.90;;;;;;5059869;28;20025;-77
2021/08/17 04:42:50;;;;;;;67.43;25.20;;;15.50;99.90;;;;;;5064351;28;20111;-74
2021/08/17 04:45:15;;;;;;;65.68;26.23;;;15.50;99.90;;;;;;5063999;28;20025;-74
2021/08/17 04:47:49;;;;;;;70.53;27.63;;;15.50;99.90;;;;;;5059735;28;20036;-74
2021/08/17 04:50:15;;;;;;;67.30;25.73;;;15.50;99.90;;;;;;5067574;28;20020;-74
2021/08/17 04:52:41;;;;;;;65.60;25.60;;;15.50;99.90;;;;;;5054440;28;20123;-75
2021/08/17 04:55:07;;;;;;;71.72;25.20;;;15.50;99.90;;;;;;5066834;28;20107;-74
2021/08/17 04:58:05;;;;;;;62.00;26.40;;;15.60;99.90;;;;;;5057664;28;20024;-74
2021/08/17 05:00:31;;;;;;;73.38;29.08;;;15.70;99.90;;;;;;5065723;28;20036;-74
2021/08/17 05:02:58;;;;;;;73.35;27.67;;;15.60;99.90;;;;;;5069240;28;20021;-74
2021/08/17 05:05:24;;;;;;;62.67;26.33;;;15.60;99.90;;;;;;5068534;28;20073;-76
2021/08/17 05:07:51;;;;;;;71.32;27.90;;;15.60;99.90;;;;;;5063322;28;20121;-74
2021/08/17 05:10:19;;;;;;;65.60;25.60;;;15.60;99.90;;;;;;5062498;28;20024;-74
2021/08/17 05:12:45;;;;;;;66.65;26.65;;;15.70;99.90;;;;;;5070324;28;20097;-74
2021/08/17 05:15:11;;;;;;;59.38;26.08;;;15.70;99.90;;;;;;5064679;28;20078;-73
2021/08/17 05:17:37;;;;;;;73.55;28.88;;;15.70;99.90;;;;;;5070270;28;20107;-73
2021/08/17 05:20:07;;;;;;;66.78;27.23;;;15.60;99.90;;;;;;5069855;28;20108;-75
2021/08/17 05:22:33;;;;;;;60.92;25.20;;;15.60;99.90;;;;;;5062375;28;20040;-74
2021/08/17 05:24:58;;;;;;;62.00;25.75;;;15.50;99.90;;;;;;5065359;28;20051;-73
2021/08/17 05:27:24;;;;;;;65.28;27.35;;;15.50;99.90;;;;;;5067307;28;20388;-73
2021/08/17 05:29:52;;;;;;;62.80;26.42;;;15.50;99.90;;;;;;5061614;28;20029;-73
2021/08/17 05:32:20;;;;;;;64.43;25.58;;;15.60;99.90;;;;;;5061876;28;20044;-73
2021/08/17 05:34:46;;;;;;;63.88;25.25;;;15.60;99.90;;;;;;5064323;28;20081;-73
2021/08/17 05:37:14;;;;;;;56.25;24.08;;;15.60;99.90;;;;;;5063873;28;20036;-74
2021/08/17 05:39:41;;;;;;;65.70;25.55;;;15.60;99.90;;;;;;5050806;28;20059;-73
2021/08/17 05:42:10;;;;;;;61.13;24.85;;;15.70;99.90;;;;;;5070978;28;20056;-74
2021/08/17 05:44:44;;;;;;;69.85;28.48;;;15.70;99.90;;;;;;5062374;28;20067;-73
2021/08/17 05:47:11;;;;;;;66.93;26.55;;;15.70;99.90;;;;;;5064948;28;20044;-74
2021/08/17 05:49:37;;;;;;;70.05;28.75;;;15.70;99.90;;;;;;5068386;28;20477;-73
2021/08/17 05:52:05;;;;;;;70.03;27.23;;;15.70;99.90;;;;;;5065390;28;20451;-74
2021/08/17 05:54:31;;;;;;;67.88;26.77;;;15.80;99.90;;;;;;5060731;28;20032;-73
2021/08/17 05:56:58;;;;;;;70.70;27.50;;;15.80;99.90;;;;;;5061686;28;20384;-74
2021/08/17 05:59:26;;;;;;;67.40;27.52;;;15.80;99.90;;;;;;5066055;28;20019;-74
2021/08/17 06:01:53;;;;;;;66.95;26.90;;;15.90;99.90;;;;;;5068723;28;20028;-74
2021/08/17 06:04:18;;;;;;;68.63;27.02;;;15.90;99.90;;;;;;5069179;28;20024;-73
2021/08/17 06:06:45;;;;;;;66.75;27.80;;;16.00;99.90;;;;;;5060689;28;20370;-73
2021/08/17 06:09:11;;;;;;;62.47;26.88;;;16.00;99.90;;;;;;5063818;28;20041;-74
2021/08/17 06:11:36;;;;;;;64.80;27.20;;;15.90;99.90;;;;;;5067171;28;20025;-74
2021/08/17 06:14:02;;;;;;;57.40;25.80;;;15.90;99.90;;;;;;5071164;28;20099;-73
2021/08/17 06:16:27;;;;;;;65.20;26.80;;;16.10;99.90;;;;;;5062710;28;20490;-73
2021/08/17 06:18:54;;;;;;;69.57;27.65;;;16.10;99.90;;;;;;5066126;28;20041;-72
2021/08/17 06:21:20;;;;;;;57.97;23.75;;;16.10;99.90;;;;;;5062859;28;20392;-74
2021/08/17 06:23:46;;;;;;;71.00;27.58;;;16.00;99.90;;;;;;5065743;28;20028;-74
2021/08/17 06:26:11;;;;;;;58.30;25.05;;;16.00;99.90;;;;;;5043725;28;20025;-74
2021/08/17 06:28:37;;;;;;;58.28;25.45;;;16.10;99.90;;;;;;5061197;28;20032;-75
2021/08/17 06:31:03;;;;;;;65.45;26.63;;;16.10;99.90;;;;;;5067969;28;20021;-75
2021/08/17 06:33:28;;;;;;;56.78;23.63;;;16.20;99.90;;;;;;5052765;28;20040;-74
2021/08/17 06:35:54;;;;;;;62.00;25.67;;;16.20;99.90;;;;;;5051475;28;20068;-74
2021/08/17 06:38:20;;;;;;;63.50;25.70;;;16.20;99.90;;;;;;5065356;28;20037;-73
2021/08/17 06:40:45;;;;;;;55.65;25.73;;;16.20;99.90;;;;;;5061564;28;20025;-74
2021/08/17 06:43:11;;;;;;;63.50;24.42;;;16.20;99.90;;;;;;5053193;28;20024;-74
2021/08/17 06:45:37;;;;;;;60.90;23.58;;;16.10;99.90;;;;;;5070870;28;20067;-74
2021/08/17 06:48:03;;;;;;;60.65;25.08;;;16.20;99.90;;;;;;5069016;28;20036;-75
2021/08/17 06:50:28;;;;;;;58.10;25.65;;;16.30;99.90;;;;;;5067261;28;20528;-75
2021/08/17 06:52:54;;;;;;;59.45;24.63;;;16.30;99.90;;;;;;5064156;28;20036;-74
2021/08/17 06:55:19;;;;;;;55.97;23.42;;;16.40;99.90;;;;;;5061118;28;20111;-74
2021/08/17 06:57:45;;;;;;;59.83;25.02;;;16.40;99.90;;;;;;5067224;28;20033;-75
2021/08/17 07:00:11;;;;;;;62.70;24.08;;;16.40;99.90;;;;;;5071812;28;20025;-76
2021/08/17 07:02:37;;;;;;;57.38;24.70;;;16.30;99.90;;;;;;5072178;28;20029;-74
2021/08/17 07:05:04;;;;;;;55.28;23.10;;;16.50;99.90;;;;;;5070533;28;20043;-74
2021/08/17 07:07:31;;;;;;;55.58;23.00;;;16.40;99.90;;;;;;5052779;28;20544;-74
2021/08/17 07:09:56;;;;;;;58.35;25.00;;;16.50;99.90;;;;;;5066976;28;20090;-74
2021/08/17 07:12:22;;;;;;;55.63;23.85;;;16.50;99.90;;;;;;5070809;28;20536;-74
2021/08/17 07:14:49;;;;;;;50.83;23.00;;;16.60;99.90;;;;;;5063925;28;20388;-75
2021/08/17 07:17:16;;;;;;;55.42;23.42;;;16.60;99.90;;;;;;5067198;28;20016;-79
2021/08/17 07:19:42;;;;;;;50.15;22.75;;;16.60;99.90;;;;;;5072928;28;20024;-74
2021/08/17 07:22:07;;;;;;;55.45;23.10;;;16.60;99.90;;;;;;5072998;28;20032;-75
2021/08/17 07:24:33;;;;;;;52.75;22.92;;;16.60;99.90;;;;;;5052010;28;20036;-74
2021/08/17 07:26:59;;;;;;;49.20;22.77;;;16.60;99.90;;;;;;5070395;28;20032;-74
2021/08/17 07:29:24;;;;;;;46.53;20.05;;;16.70;99.90;;;;;;5055381;28;20468;-74
2021/08/17 07:31:50;;;;;;;50.42;22.70;;;16.80;99.90;;;;;;5069229;28;20129;-75
2021/08/17 07:34:16;;;;;;;57.13;23.70;;;16.80;99.90;;;;;;5065888;28;20497;-75
2021/08/17 07:36:42;;;;;;;46.65;21.95;;;16.90;99.90;;;;;;5064051;28;20794;-75
2021/08/17 07:39:12;;;;;;;50.63;21.10;;;16.80;99.90;;;;;;5069012;28;20025;-74
2021/08/17 07:41:38;;;;;;;46.63;22.05;;;16.90;99.90;;;;;;5065546;28;20388;-79
2021/08/17 07:44:04;;;;;;;52.78;20.52;;;17.00;99.90;;;;;;5067576;28;20025;-75
2021/08/17 07:46:30;;;;;;;47.40;20.95;;;17.10;99.90;;;;;;5071151;28;20170;-75
2021/08/17 07:48:56;;;;;;;43.83;20.65;;;17.10;99.90;;;;;;5052958;28;20093;-74
2021/08/17 07:51:22;;;;;;;45.97;20.33;;;17.10;99.90;;;;;;5069465;28;20469;-76
2021/08/17 07:53:48;;;;;;;45.25;21.65;;;17.30;99.90;;;;;;5056039;28;20494;-75
2021/08/17 07:56:14;;;;;;;41.80;19.10;;;17.40;99.90;;;;;;5069835;28;20392;-77
2021/08/17 07:58:40;;;;;;;47.70;19.80;;;17.50;99.90;;;;;;5067294;28;20104;-76
2021/08/17 08:01:06;;;;;;;40.25;18.85;;;17.50;99.90;;;;;;5051740;28;20028;-74
2021/08/17 08:03:33;;;;;;;46.83;19.92;;;17.60;99.90;;;;;;5060224;28;20470;-76
2021/08/17 08:05:59;;;;;;;40.40;18.85;;;17.50;99.90;;;;;;5053037;28;20089;-76
2021/08/17 08:08:25;;;;;;;41.63;18.05;;;17.60;99.90;;;;;;5064037;28;20492;-75
2021/08/17 08:10:51;;;;;;;41.15;18.35;;;17.70;99.90;;;;;;5059087;28;20040;-78
2021/08/17 08:13:16;;;;;;;44.90;17.90;;;17.70;99.90;;;;;;5054352;28;20107;-75
2021/08/17 08:15:42;;;;;;;36.33;17.55;;;17.70;99.90;;;;;;5065809;28;20499;-74
2021/08/17 08:18:08;;;;;;;36.10;17.08;;;17.80;99.90;;;;;;5047202;28;20048;-75
2021/08/17 08:20:33;;;;;;;37.22;17.27;;;17.90;99.90;;;;;;5063733;28;20025;-75
2021/08/17 08:22:59;;;;;;;44.55;17.85;;;17.90;99.90;;;;;;5061223;28;20035;-74
2021/08/17 08:25:25;;;;;;;36.25;16.13;;;18.00;99.90;;;;;;5046265;28;20299;-74
2021/08/17 08:27:51;;;;;;;32.00;15.73;;;18.00;99.90;;;;;;5072388;28;20545;-80
2021/08/17 08:30:17;;;;;;;29.35;14.75;;;18.10;99.90;;;;;;5070023;28;20031;-74
2021/08/17 08:32:43;;;;;;;26.60;14.55;;;18.10;99.90;;;;;;5068199;28;20103;-75
2021/08/17 08:35:10;;;;;;;30.60;15.98;;;18.20;99.90;;;;;;5064672;28;20060;-74
2021/08/17 08:37:35;;;;;;;27.13;14.85;;;18.20;99.90;;;;;;5069981;28;20028;-80
2021/08/17 08:40:02;;;;;;;33.50;15.35;;;18.30;99.90;;;;;;5071068;28;20066;-75
2021/08/17 08:42:28;;;;;;;31.50;14.93;;;18.30;99.90;;;;;;5068725;28;20028;-76
2021/08/17 08:44:54;;;;;;;30.55;15.73;;;18.20;99.90;;;;;;5064859;28;20036;-76
2021/08/17 08:47:21;;;;;;;30.73;14.63;;;18.30;99.90;;;;;;5063587;28;20036;-78
2021/08/17 08:49:49;;;;;;;25.90;13.98;;;18.40;99.90;;;;;;5067108;28;20500;-78
2021/08/17 08:52:16;;;;;;;27.10;13.30;;;18.50;99.90;;;;;;5070846;28;20028;-76
2021/08/17 08:54:42;;;;;;;25.63;13.15;;;18.60;99.90;;;;;;5069928;28;20501;-75
2021/08/17 08:57:08;;;;;;;25.40;11.52;;;18.70;99.90;;;;;;5068916;28;20029;-78
2021/08/17 08:59:34;;;;;;;24.38;12.20;;;18.70;99.90;;;;;;5066148;28;20107;-80
2021/08/17 09:02:11;;;;;;;21.85;11.50;;;18.80;99.90;;;;;;5065239;28;20039;-81
2021/08/17 09:04:38;;;;;;;20.98;10.48;;;18.90;99.90;;;;;;5064569;28;20031;-80
2021/08/17 09:07:05;;;;;;;20.35;10.45;;;19.00;99.90;;;;;;5067666;28;20076;-79
2021/08/17 09:09:30;;;;;;;16.30;9.55;;;19.00;99.90;;;;;;5066588;28;20070;-75
2021/08/17 09:11:58;;;;;;;19.50;8.98;;;19.00;99.90;;;;;;5070654;28;20025;-76
2021/08/17 09:14:30;;;;;;;16.52;9.38;;;18.90;99.90;;;;;;5062271;28;20039;-76
2021/08/17 09:17:01;;;;;;;14.52;8.63;;;18.90;99.90;;;;;;5065714;28;20048;-76
2021/08/17 09:19:36;;;;;;;15.43;8.10;;;18.80;99.90;;;;;;5063365;28;20044;-75
2021/08/17 09:22:23;;;;;;;17.08;8.52;;;18.80;99.90;;;;;;5062171;28;20024;-81
2021/08/17 09:24:58;;;;;;;13.43;8.13;;;18.80;99.90;;;;;;5067877;28;20025;-75
2021/08/17 09:27:35;;;;;;;17.85;9.27;;;18.80;99.90;;;;;;5048398;28;20032;-75
2021/08/17 09:30:05;;;;;;;15.82;9.05;;;18.90;99.90;;;;;;5059873;28;20013;-75
2021/08/17 09:32:31;;;;;;;19.30;8.82;;;19.00;99.90;;;;;;5069324;28;20028;-75
2021/08/17 09:35:03;;;;;;;15.75;9.15;;;19.00;99.90;;;;;;5065899;28;20021;-75
2021/08/17 09:37:32;;;;;;;16.52;8.00;;;19.00;99.90;;;;;;5044835;28;20027;-76
2021/08/17 09:39:59;;;;;;;12.75;7.65;;;19.00;99.90;;;;;;5060915;28;20033;-72
2021/08/17 09:42:28;;;;;;;13.63;8.00;;;19.00;99.90;;;;;;5062981;28;20027;-75
2021/08/17 09:45:09;;;;;;;13.23;8.70;;;19.00;99.90;;;;;;5050276;28;20441;-74
2021/08/17 09:47:36;;;;;;;14.73;8.70;;;19.00;99.90;;;;;;5046823;28;20028;-75
2021/08/17 09:50:27;;;;;;;19.80;9.25;;;18.90;99.90;;;;;;5048374;28;20020;-74
2021/08/17 09:53:09;;;;;;;14.40;8.80;;;18.80;99.90;;;;;;5053222;28;20503;-75
2021/08/17 09:55:48;;;;;;;21.70;9.48;;;18.80;99.90;;;;;;5062635;28;20083;-75
2021/08/17 09:58:18;;;;;;;13.90;8.65;;;18.80;99.90;;;;;;5064925;28;20032;-74
2021/08/17 10:00:45;;;;;;;14.55;8.45;;;18.70;99.90;;;;;;5045036;28;20059;-75
2021/08/17 10:03:13;;;;;;;14.30;8.73;;;18.60;99.90;;;;;;5066074;28;20029;-74
2021/08/17 10:05:40;;;;;;;18.15;8.95;;;18.60;99.90;;;;;;5042275;28;20052;-75
2021/08/17 10:08:11;;;;;;;18.85;9.60;;;18.60;99.90;;;;;;5064120;28;20093;-83
2021/08/17 10:10:41;;;;;;;17.30;10.30;;;18.60;99.90;;;;;;5062673;28;20167;-76
2021/08/17 10:13:18;;;;;;;16.00;9.18;;;18.50;99.90;;;;;;5061821;28;20030;-74
2021/08/17 10:15:45;;;;;;;21.58;9.05;;;18.40;99.90;;;;;;5064740;28;20095;-75
2021/08/17 10:18:14;;;;;;;20.67;8.60;;;18.50;99.90;;;;;;5065110;28;20202;-83
2021/08/17 10:20:43;;;;;;;14.70;8.15;;;18.50;99.90;;;;;;5070994;28;20518;-83
2021/08/17 10:23:14;;;;;;;19.67;8.70;;;18.60;99.90;;;;;;5073048;28;20063;-83
2021/08/17 10:25:48;;;;;;;16.30;9.50;;;18.60;99.90;;;;;;5071622;28;20025;-79
2021/08/17 10:28:38;;;;;;;17.45;9.15;;;18.60;99.90;;;;;;5058876;28;20041;-81
2021/08/17 10:31:12;;;;;;;18.65;10.63;;;18.50;99.90;;;;;;5072761;28;20059;-79
2021/08/17 10:34:05;;;;;;;15.63;9.38;;;18.50;99.90;;;;;;5073755;28;20110;-78
2021/08/17 10:36:32;;;;;;;18.92;11.02;;;18.50;99.90;;;;;;5069116;28;20483;-77
2021/08/17 10:39:02;;;;;;;16.73;9.55;;;18.40;99.90;;;;;;5064997;28;20032;-77
2021/08/17 10:41:33;;;;;;;17.92;9.77;;;18.50;99.90;;;;;;5070094;28;20043;-78
2021/08/17 10:43:59;;;;;;;21.65;10.30;;;18.40;99.90;;;;;;5069138;28;20063;-77
2021/08/17 10:46:48;;;;;;;18.88;10.77;;;18.50;99.90;;;;;;5072121;28;20549;-77
2021/08/17 10:49:25;;;;;;;16.02;9.80;;;18.60;99.90;;;;;;5069257;28;20071;-78
2021/08/17 10:51:52;;;;;;;15.52;10.02;;;18.60;99.90;;;;;;5067416;28;20016;-76
2021/08/17 10:54:18;;;;;;;16.63;10.48;;;18.70;99.90;;;;;;5068907;28;20500;-75
2021/08/17 10:56:47;;;;;;;18.33;10.05;;;18.70;99.90;;;;;;5070026;28;20093;-79
2021/08/17 10:59:14;;;;;;;18.95;10.25;;;18.80;99.90;;;;;;5068817;28;20100;-74
2021/08/17 11:01:42;;;;;;;22.27;10.82;;;18.80;99.90;;;;;;5064908;28;20496;-78
2021/08/17 11:04:17;;;;;;;14.07;9.13;;;19.00;99.90;;;;;;5070482;28;20040;-75
2021/08/17 11:06:44;;;;;;;15.43;9.73;;;19.00;99.90;;;;;;5073540;28;20468;-75
2021/08/17 11:09:13;;;;;;;15.90;10.35;;;19.00;99.90;;;;;;5061338;28;20171;-76
2021/08/17 11:11:40;;;;;;;13.63;9.30;;;19.00;99.90;;;;;;5067675;28;20074;-75
2021/08/17 11:14:18;;;;;;;14.05;9.68;;;18.90;99.90;;;;;;5054429;28;20028;-75
2021/08/17 11:16:58;;;;;;;13.68;8.18;;;18.70;99.90;;;;;;5073619;28;20024;-78
2021/08/17 11:19:38;;;;;;;18.40;9.35;;;18.70;99.90;;;;;;5067697;28;20025;-76
2021/08/17 11:22:40;;;;;;;17.15;9.15;;;18.60;99.90;;;;;;5070608;28;20492;-76
2021/08/17 11:25:08;;;;;;;19.48;9.73;;;18.70;99.90;;;;;;5061817;28;20123;-78
2021/08/17 11:27:40;;;;;;;19.23;9.23;;;18.70;99.90;;;;;;5066760;28;20044;-75
2021/08/17 11:30:11;;;;;;;16.65;9.93;;;18.80;99.90;;;;;;5066458;28;20538;-78
2021/08/17 11:32:48;;;;;;;16.25;9.85;;;18.80;99.90;;;;;;5065586;28;20021;-76
2021/08/17 11:35:22;;;;;;;17.30;8.82;;;18.70;99.90;;;;;;5061391;28;20032;-78
2021/08/17 11:37:51;;;;;;;15.68;9.90;;;18.70;99.90;;;;;;5052587;28;20114;-75
2021/08/17 11:40:31;;;;;;;17.45;9.48;;;18.70;99.90;;;;;;5066417;28;20504;-76
2021/08/17 11:42:57;;;;;;;16.45;9.68;;;18.70;99.90;;;;;;5053815;28;20016;-77
2021/08/17 11:45:26;;;;;;;16.45;9.63;;;18.70;99.90;;;;;;5064494;28;20033;-74
2021/08/17 11:47:53;;;;;;;19.92;9.73;;;18.80;99.90;;;;;;5067432;28;20021;-76
2021/08/17 11:50:21;;;;;;;16.70;9.70;;;18.70;99.90;;;;;;5056798;28;20028;-75
2021/08/17 11:52:57;;;;;;;13.20;8.77;;;18.60;99.90;;;;;;5071748;28;20052;-75
2021/08/17 11:55:28;;;;;;;15.57;10.18;;;18.60;99.90;;;;;;5062123;28;20024;-76
2021/08/17 11:58:19;;;;;;;14.68;9.88;;;18.60;99.90;;;;;;5066580;28;20032;-77
2021/08/17 12:00:47;;;;;;;16.75;9.57;;;18.70;99.90;;;;;;5072337;28;20021;-81
2021/08/17 12:03:13;;;;;;;22.02;10.25;;;18.80;99.90;;;;;;5066835;28;20024;-79
2021/08/17 12:05:39;;;;;;;21.65;9.38;;;18.60;99.90;;;;;;5049123;28;20028;-80
2021/08/17 12:08:09;;;;;;;14.75;9.27;;;18.50;99.90;;;;;;5066997;28;20509;-83
2021/08/17 12:10:36;;;;;;;16.58;9.20;;;18.40;99.90;;;;;;5071040;28;20412;-80
2021/08/17 12:13:15;;;;;;;15.48;9.05;;;18.30;99.90;;;;;;5067167;28;20100;-80
2021/08/17 12:15:57;;;;;;;15.90;10.13;;;18.30;99.90;;;;;;5068236;28;20024;-81
2021/08/17 12:18:31;;;;;;;15.25;10.93;;;18.30;99.90;;;;;;5066443;28;20503;-78
2021/08/17 12:21:05;;;;;;;15.57;10.57;;;18.20;99.90;;;;;;5072945;28;20017;-77
2021/08/17 12:23:32;;;;;;;13.38;9.52;;;18.20;99.90;;;;;;5071918;28;20040;-79
2021/08/17 12:26:27;;;;;;;15.30;10.98;;;18.20;99.90;;;;;;5065467;28;20036;-81
2021/08/17 12:29:07;;;;;;;15.88;9.88;;;18.20;99.90;;;;;;5051567;28;20020;-82
2021/08/17 12:31:47;;;;;;;16.90;10.52;;;18.20;99.90;;;;;;5066910;28;20519;-80
2021/08/17 12:34:13;;;;;;;15.27;9.82;;;18.20;99.90;;;;;;5065544;28;20099;-79